EZY618Y EGJJ-EGPH
Flight info
| Callsign | EZY618Y |
|---|---|
| Flight time | 1h 15m |
| Altitude | 24000 |
| Route | SKERY L22 EMWIP P16 FIMCA/N0450F350 DCT BHD DCT WIGGU DCT AZCAL DCT AVTIC DCT ANJAK/N0455F360 N38 NOKIN UP16 RIBEL DCT INPIP |
| Aircraft | A320/M-SDE3FGHIRWY/LB1 |
Departure
| Time | 2026-04-20 18:59 |
|---|---|
| Airport | Jersey Airport (EGJJ) |
Arrival
| Time | 2026-04-20 20:14 |
|---|---|
| Airport | Edinburgh Airport (EGPH) |
| Time | Latitude | Longitude | Altitude | Speed | Heading |
|---|---|---|---|---|---|
| 2026-04-20 18:20 | 49.20552 | -2.19806 | 284 ft | 0 kts | 174° |
| 2026-04-20 18:48 | 49.20561 | -2.19807 | 285 ft | 3 kts | 174° |
| 2026-04-20 18:48 | 49.20581 | -2.19810 | 287 ft | 3 kts | 174° |
| 2026-04-20 18:48 | 49.20600 | -2.19812 | 283 ft | 3 kts | 189° |
| 2026-04-20 18:48 | 49.20609 | -2.19813 | 286 ft | 2 kts | 260° |
| 2026-04-20 18:49 | 49.20611 | -2.19796 | 288 ft | 3 kts | 263° |
| 2026-04-20 18:49 | 49.20612 | -2.19776 | 286 ft | 0 kts | 263° |
| 2026-04-20 18:54 | 49.20612 | -2.19779 | 287 ft | 3 kts | 263° |
| 2026-04-20 18:54 | 49.20606 | -2.19850 | 280 ft | 7 kts | 263° |
| 2026-04-20 18:54 | 49.20592 | -2.19911 | 280 ft | 5 kts | 226° |
| 2026-04-20 18:55 | 49.20561 | -2.19926 | 280 ft | 6 kts | 182° |
| 2026-04-20 18:55 | 49.20520 | -2.19975 | 280 ft | 8 kts | 262° |
| 2026-04-20 18:55 | 49.20527 | -2.20047 | 280 ft | 6 kts | 286° |
| 2026-04-20 18:55 | 49.20538 | -2.20103 | 283 ft | 5 kts | 287° |
| 2026-04-20 18:56 | 49.20548 | -2.20155 | 282 ft | 5 kts | 286° |
| 2026-04-20 18:56 | 49.20556 | -2.20198 | 280 ft | 4 kts | 286° |
| 2026-04-20 18:56 | 49.20564 | -2.20238 | 283 ft | 6 kts | 288° |
| 2026-04-20 18:56 | 49.20575 | -2.20288 | 280 ft | 4 kts | 288° |
| 2026-04-20 18:57 | 49.20583 | -2.20327 | 282 ft | 3 kts | 288° |
| 2026-04-20 18:57 | 49.20590 | -2.20359 | 280 ft | 6 kts | 287° |
| 2026-04-20 18:57 | 49.20613 | -2.20476 | 280 ft | 6 kts | 285° |
| 2026-04-20 18:57 | 49.20616 | -2.20493 | 280 ft | 0 kts | 284° |
| 2026-04-20 18:58 | 49.20617 | -2.20497 | 280 ft | 4 kts | 284° |
| 2026-04-20 18:58 | 49.20626 | -2.20619 | 280 ft | 12 kts | 271° |
| 2026-04-20 18:58 | 49.20666 | -2.20712 | 279 ft | 11 kts | 346° |
| 2026-04-20 18:58 | 49.20708 | -2.20636 | 282 ft | 16 kts | 83° |
| 2026-04-20 18:59 | 49.20757 | -2.20043 | 280 ft | 99 kts | 83° |
| 2026-04-20 18:59 | 49.20870 | -2.18659 | 378 ft | 158 kts | 83° |
| 2026-04-20 18:59 | 49.21004 | -2.16901 | 1083 ft | 171 kts | 83° |
| 2026-04-20 18:59 | 49.21158 | -2.15026 | 1688 ft | 185 kts | 83° |
| 2026-04-20 19:00 | 49.21340 | -2.12951 | 1992 ft | 210 kts | 80° |
| 2026-04-20 19:00 | 49.21850 | -2.10742 | 2365 ft | 234 kts | 58° |
| 2026-04-20 19:00 | 49.22978 | -2.08811 | 2792 ft | 255 kts | 34° |
| 2026-04-20 19:00 | 49.24620 | -2.07709 | 3542 ft | 262 kts | 10° |
| 2026-04-20 19:01 | 49.26445 | -2.07728 | 4383 ft | 267 kts | 346° |
| 2026-04-20 19:01 | 49.28129 | -2.08908 | 4748 ft | 268 kts | 320° |
| 2026-04-20 19:01 | 49.29396 | -2.10937 | 4836 ft | 267 kts | 310° |
| 2026-04-20 19:01 | 49.30622 | -2.13090 | 5138 ft | 270 kts | 310° |
| 2026-04-20 19:02 | 49.31861 | -2.15259 | 6074 ft | 271 kts | 311° |
| 2026-04-20 19:02 | 49.33111 | -2.17437 | 6940 ft | 274 kts | 311° |
| 2026-04-20 19:02 | 49.34381 | -2.19640 | 7768 ft | 277 kts | 311° |
| 2026-04-20 19:02 | 49.35669 | -2.21868 | 8588 ft | 281 kts | 311° |
| 2026-04-20 19:03 | 49.36974 | -2.24122 | 9390 ft | 284 kts | 311° |
| 2026-04-20 19:03 | 49.38293 | -2.26403 | 10164 ft | 288 kts | 311° |
| 2026-04-20 19:03 | 49.39628 | -2.28856 | 10451 ft | 311 kts | 309° |
| 2026-04-20 19:03 | 49.41047 | -2.31456 | 10640 ft | 334 kts | 311° |
| 2026-04-20 19:04 | 49.42654 | -2.34155 | 11080 ft | 347 kts | 314° |
| 2026-04-20 19:04 | 49.44382 | -2.36785 | 11718 ft | 352 kts | 316° |
| 2026-04-20 19:04 | 49.46200 | -2.39345 | 12402 ft | 356 kts | 318° |
| 2026-04-20 19:04 | 49.48055 | -2.41893 | 13077 ft | 360 kts | 317° |
| 2026-04-20 19:05 | 49.49919 | -2.44486 | 13741 ft | 363 kts | 317° |
| 2026-04-20 19:05 | 49.51793 | -2.47125 | 14381 ft | 367 kts | 317° |
| 2026-04-20 19:05 | 49.53675 | -2.49808 | 15001 ft | 370 kts | 317° |
| 2026-04-20 19:05 | 49.55561 | -2.52526 | 15608 ft | 373 kts | 316° |
| 2026-04-20 19:06 | 49.57436 | -2.55241 | 16188 ft | 377 kts | 316° |
| 2026-04-20 19:06 | 49.59351 | -2.58016 | 16763 ft | 380 kts | 316° |
| 2026-04-20 19:06 | 49.61287 | -2.60819 | 17320 ft | 383 kts | 316° |
| 2026-04-20 19:06 | 49.63239 | -2.63641 | 17861 ft | 386 kts | 316° |
| 2026-04-20 19:07 | 49.65206 | -2.66483 | 18387 ft | 389 kts | 316° |
| 2026-04-20 19:07 | 49.67192 | -2.69351 | 18897 ft | 392 kts | 316° |
| 2026-04-20 19:07 | 49.69195 | -2.72241 | 19387 ft | 395 kts | 316° |
| 2026-04-20 19:07 | 49.71211 | -2.75152 | 19849 ft | 398 kts | 316° |
| 2026-04-20 19:08 | 49.73234 | -2.78085 | 19981 ft | 399 kts | 316° |
| 2026-04-20 19:08 | 49.77271 | -2.83964 | 20009 ft | 399 kts | 316° |
| 2026-04-20 19:08 | 49.79263 | -2.86869 | 20010 ft | 398 kts | 316° |
| 2026-04-20 19:09 | 49.81277 | -2.89809 | 20009 ft | 398 kts | 316° |
| 2026-04-20 19:09 | 49.83296 | -2.92757 | 20009 ft | 398 kts | 316° |
| 2026-04-20 19:09 | 49.85469 | -2.95390 | 20012 ft | 399 kts | 330° |
| 2026-04-20 19:09 | 49.88065 | -2.96940 | 20438 ft | 403 kts | 347° |
| 2026-04-20 19:10 | 49.90854 | -2.97288 | 20908 ft | 405 kts | 2° |
| 2026-04-20 19:10 | 49.93688 | -2.97101 | 21366 ft | 408 kts | 2° |
| 2026-04-20 19:10 | 49.96531 | -2.96871 | 21809 ft | 411 kts | 3° |
| 2026-04-20 19:10 | 49.99392 | -2.96614 | 22238 ft | 413 kts | 3° |
| 2026-04-20 19:11 | 50.02233 | -2.96355 | 22662 ft | 416 kts | 3° |
| 2026-04-20 19:11 | 50.05130 | -2.96091 | 23063 ft | 419 kts | 3° |
| 2026-04-20 19:11 | 50.08051 | -2.95834 | 23464 ft | 421 kts | 3° |
| 2026-04-20 19:11 | 50.10987 | -2.95585 | 23850 ft | 424 kts | 3° |
| 2026-04-20 19:12 | 50.13932 | -2.95338 | 23985 ft | 426 kts | 3° |
| 2026-04-20 19:12 | 50.16908 | -2.95089 | 24010 ft | 430 kts | 2° |
| 2026-04-20 19:12 | 50.19894 | -2.94839 | 24009 ft | 431 kts | 3° |
| 2026-04-20 19:12 | 50.22891 | -2.94584 | 24013 ft | 431 kts | 3° |
| 2026-04-20 19:13 | 50.25884 | -2.94331 | 24009 ft | 431 kts | 3° |
| 2026-04-20 19:13 | 50.28836 | -2.94083 | 24009 ft | 431 kts | 2° |
| 2026-04-20 19:13 | 50.31831 | -2.93830 | 24014 ft | 431 kts | 3° |
| 2026-04-20 19:13 | 50.34823 | -2.93573 | 24009 ft | 431 kts | 3° |
| 2026-04-20 19:14 | 50.37817 | -2.93317 | 24009 ft | 431 kts | 3° |
| 2026-04-20 19:14 | 50.40812 | -2.93063 | 24008 ft | 431 kts | 3° |
| 2026-04-20 19:14 | 50.43800 | -2.92806 | 24006 ft | 431 kts | 3° |
| 2026-04-20 19:14 | 50.46794 | -2.92546 | 24004 ft | 430 kts | 3° |
| 2026-04-20 19:15 | 50.49784 | -2.92290 | 24002 ft | 430 kts | 3° |
| 2026-04-20 19:15 | 50.52734 | -2.92036 | 24001 ft | 430 kts | 3° |
| 2026-04-20 19:15 | 50.55720 | -2.91779 | 23999 ft | 430 kts | 3° |
| 2026-04-20 19:15 | 50.58708 | -2.91521 | 23998 ft | 430 kts | 3° |
| 2026-04-20 19:16 | 50.61699 | -2.91263 | 23997 ft | 430 kts | 3° |
| 2026-04-20 19:16 | 50.64688 | -2.91008 | 23997 ft | 430 kts | 3° |
| 2026-04-20 19:16 | 50.67675 | -2.90753 | 23996 ft | 430 kts | 3° |
| 2026-04-20 19:16 | 50.70666 | -2.90499 | 23996 ft | 430 kts | 2° |
| 2026-04-20 19:17 | 50.73651 | -2.90247 | 23996 ft | 430 kts | 2° |
| 2026-04-20 19:17 | 50.76640 | -2.89991 | 23995 ft | 430 kts | 3° |
| 2026-04-20 19:17 | 50.79629 | -2.89729 | 23993 ft | 430 kts | 3° |
| 2026-04-20 19:17 | 50.82618 | -2.89460 | 23993 ft | 430 kts | 3° |
| 2026-04-20 19:18 | 50.85608 | -2.89190 | 23993 ft | 431 kts | 3° |
| 2026-04-20 19:18 | 50.88602 | -2.88925 | 23993 ft | 431 kts | 3° |
| 2026-04-20 19:18 | 50.91557 | -2.88667 | 23994 ft | 431 kts | 3° |
| 2026-04-20 19:18 | 50.94546 | -2.88406 | 23996 ft | 431 kts | 3° |
| 2026-04-20 19:19 | 50.97538 | -2.88146 | 23997 ft | 431 kts | 3° |
| 2026-04-20 19:19 | 51.00534 | -2.87885 | 23998 ft | 431 kts | 3° |
| 2026-04-20 19:19 | 51.03525 | -2.87628 | 23999 ft | 431 kts | 3° |
| 2026-04-20 19:19 | 51.06517 | -2.87372 | 24000 ft | 431 kts | 3° |
| 2026-04-20 19:20 | 51.09508 | -2.87114 | 24001 ft | 431 kts | 3° |
| 2026-04-20 19:20 | 51.12501 | -2.86850 | 24003 ft | 431 kts | 3° |
| 2026-04-20 19:20 | 51.15496 | -2.86581 | 24004 ft | 431 kts | 3° |
| 2026-04-20 19:20 | 51.18450 | -2.86315 | 24006 ft | 431 kts | 3° |
| 2026-04-20 19:21 | 51.21445 | -2.86049 | 24009 ft | 431 kts | 3° |
| 2026-04-20 19:21 | 51.24441 | -2.85787 | 24010 ft | 431 kts | 3° |
| 2026-04-20 19:21 | 51.27434 | -2.85527 | 24010 ft | 431 kts | 3° |
| 2026-04-20 19:21 | 51.30428 | -2.85262 | 24018 ft | 432 kts | 3° |
| 2026-04-20 19:22 | 51.33387 | -2.84998 | 24971 ft | 416 kts | 3° |
| 2026-04-20 19:22 | 51.36206 | -2.84743 | 26158 ft | 396 kts | 3° |
| 2026-04-20 19:22 | 51.38890 | -2.84502 | 27328 ft | 376 kts | 3° |
| 2026-04-20 19:22 | 51.41432 | -2.84276 | 28389 ft | 359 kts | 3° |
| 2026-04-20 19:23 | 51.43908 | -2.84056 | 28989 ft | 355 kts | 3° |
| 2026-04-20 19:23 | 51.46374 | -2.83836 | 29388 ft | 356 kts | 3° |
| 2026-04-20 19:23 | 51.48851 | -2.83617 | 29723 ft | 358 kts | 2° |
| 2026-04-20 19:23 | 51.51312 | -2.83401 | 30048 ft | 360 kts | 3° |
| 2026-04-20 19:24 | 51.53820 | -2.83179 | 30374 ft | 362 kts | 3° |
| 2026-04-20 19:24 | 51.56340 | -2.82953 | 30678 ft | 364 kts | 3° |
| 2026-04-20 19:24 | 51.58879 | -2.82727 | 30978 ft | 367 kts | 3° |
| 2026-04-20 19:24 | 51.61435 | -2.82498 | 31281 ft | 369 kts | 3° |
| 2026-04-20 19:25 | 51.64001 | -2.82263 | 31583 ft | 371 kts | 3° |
| 2026-04-20 19:25 | 51.66590 | -2.82021 | 31843 ft | 374 kts | 3° |
| 2026-04-20 19:25 | 51.69201 | -2.81779 | 32133 ft | 376 kts | 3° |
| 2026-04-20 19:25 | 51.71818 | -2.81542 | 32437 ft | 378 kts | 3° |
| 2026-04-20 19:26 | 51.74450 | -2.81307 | 32731 ft | 380 kts | 3° |
| 2026-04-20 19:26 | 51.77063 | -2.81074 | 32978 ft | 382 kts | 3° |
| 2026-04-20 19:26 | 51.79724 | -2.80838 | 33242 ft | 384 kts | 3° |
| 2026-04-20 19:26 | 51.82400 | -2.80597 | 33500 ft | 386 kts | 3° |
| 2026-04-20 19:27 | 51.85091 | -2.80351 | 33749 ft | 388 kts | 3° |
| 2026-04-20 19:27 | 51.87794 | -2.80101 | 33972 ft | 390 kts | 3° |
| 2026-04-20 19:27 | 51.90508 | -2.79850 | 34210 ft | 392 kts | 3° |
| 2026-04-20 19:27 | 51.93242 | -2.79599 | 34416 ft | 394 kts | 3° |
| 2026-04-20 19:28 | 51.95987 | -2.79346 | 34641 ft | 396 kts | 3° |
| 2026-04-20 19:28 | 51.98738 | -2.79093 | 34869 ft | 397 kts | 3° |
| 2026-04-20 19:28 | 52.01504 | -2.78841 | 35069 ft | 399 kts | 3° |
| 2026-04-20 19:28 | 52.04284 | -2.78590 | 35263 ft | 401 kts | 3° |
| 2026-04-20 19:29 | 52.07034 | -2.78342 | 35460 ft | 402 kts | 3° |
| 2026-04-20 19:29 | 52.09833 | -2.78087 | 35661 ft | 404 kts | 3° |
| 2026-04-20 19:29 | 52.12645 | -2.77827 | 35852 ft | 405 kts | 3° |
| 2026-04-20 19:29 | 52.15463 | -2.77560 | 35983 ft | 408 kts | 3° |
| 2026-04-20 19:30 | 52.18323 | -2.77288 | 36010 ft | 414 kts | 3° |
| 2026-04-20 19:30 | 52.24166 | -2.76748 | 36010 ft | 427 kts | 3° |
| 2026-04-20 19:31 | 52.30182 | -2.76208 | 36010 ft | 439 kts | 3° |
| 2026-04-20 19:31 | 52.36351 | -2.75641 | 36010 ft | 449 kts | 3° |
| 2026-04-20 19:32 | 52.42555 | -2.75062 | 36008 ft | 450 kts | 3° |
| 2026-04-20 19:32 | 52.48814 | -2.74478 | 36011 ft | 451 kts | 3° |
| 2026-04-20 19:33 | 52.55079 | -2.73882 | 36008 ft | 451 kts | 3° |
| 2026-04-20 19:33 | 52.61349 | -2.73283 | 36008 ft | 451 kts | 3° |
| 2026-04-20 19:34 | 52.67615 | -2.72688 | 36011 ft | 451 kts | 3° |
| 2026-04-20 19:34 | 52.73878 | -2.72106 | 36012 ft | 451 kts | 3° |
| 2026-04-20 19:35 | 52.80090 | -2.71525 | 36013 ft | 451 kts | 3° |
| 2026-04-20 19:35 | 52.86351 | -2.70928 | 36010 ft | 451 kts | 3° |
| 2026-04-20 19:36 | 52.92607 | -2.70337 | 36010 ft | 451 kts | 3° |
| 2026-04-20 19:36 | 52.98873 | -2.69732 | 36010 ft | 451 kts | 3° |
| 2026-04-20 19:37 | 53.05132 | -2.69119 | 36011 ft | 451 kts | 3° |
| 2026-04-20 19:37 | 53.11353 | -2.68526 | 36012 ft | 451 kts | 3° |
| 2026-04-20 19:38 | 53.17543 | -2.67938 | 36013 ft | 451 kts | 3° |
| 2026-04-20 19:38 | 53.23806 | -2.67327 | 36015 ft | 451 kts | 3° |
| 2026-04-20 19:39 | 53.30060 | -2.66713 | 36011 ft | 450 kts | 3° |
| 2026-04-20 19:39 | 53.36276 | -2.66112 | 36010 ft | 450 kts | 3° |
| 2026-04-20 19:40 | 53.42529 | -2.65465 | 36008 ft | 450 kts | 6° |
| 2026-04-20 19:40 | 53.48566 | -2.62818 | 36007 ft | 450 kts | 20° |
| 2026-04-20 19:41 | 53.54429 | -2.59115 | 36004 ft | 450 kts | 20° |
| 2026-04-20 19:41 | 53.60256 | -2.55431 | 36003 ft | 451 kts | 20° |
| 2026-04-20 19:42 | 53.66132 | -2.51709 | 36002 ft | 451 kts | 20° |
| 2026-04-20 19:42 | 53.72013 | -2.47971 | 35998 ft | 452 kts | 20° |
| 2026-04-20 19:43 | 53.77901 | -2.44215 | 36007 ft | 452 kts | 20° |
| 2026-04-20 19:43 | 53.83783 | -2.40441 | 36012 ft | 452 kts | 20° |
| 2026-04-20 19:44 | 53.89628 | -2.36689 | 36018 ft | 452 kts | 20° |
| 2026-04-20 19:44 | 53.95515 | -2.32931 | 36019 ft | 452 kts | 18° |
| 2026-04-20 19:45 | 54.01681 | -2.31279 | 36015 ft | 450 kts | 358° |
| 2026-04-20 19:45 | 54.07800 | -2.33258 | 36007 ft | 449 kts | 338° |
| 2026-04-20 19:46 | 54.13590 | -2.37258 | 36003 ft | 449 kts | 338° |
| 2026-04-20 19:46 | 54.19345 | -2.41238 | 35996 ft | 450 kts | 338° |
| 2026-04-20 19:47 | 54.25146 | -2.45278 | 35993 ft | 451 kts | 338° |
| 2026-04-20 19:47 | 54.30957 | -2.49339 | 36004 ft | 451 kts | 338° |
| 2026-04-20 19:48 | 54.36773 | -2.53412 | 36007 ft | 452 kts | 338° |
| 2026-04-20 19:48 | 54.42557 | -2.57472 | 35523 ft | 455 kts | 337° |
| 2026-04-20 19:48 | 54.45525 | -2.59561 | 34352 ft | 466 kts | 337° |
| 2026-04-20 19:49 | 54.48546 | -2.61695 | 33329 ft | 471 kts | 337° |
| 2026-04-20 19:49 | 54.51570 | -2.63832 | 31928 ft | 471 kts | 337° |
| 2026-04-20 19:49 | 54.54611 | -2.65985 | 30282 ft | 475 kts | 337° |
| 2026-04-20 19:49 | 54.57675 | -2.68160 | 28535 ft | 478 kts | 337° |
| 2026-04-20 19:50 | 54.60759 | -2.70346 | 26657 ft | 480 kts | 337° |
| 2026-04-20 19:50 | 54.63856 | -2.72544 | 24686 ft | 483 kts | 337° |
| 2026-04-20 19:50 | 54.66932 | -2.74740 | 23679 ft | 467 kts | 337° |
| 2026-04-20 19:50 | 54.69792 | -2.76788 | 23368 ft | 436 kts | 337° |
| 2026-04-20 19:51 | 54.72528 | -2.78745 | 22726 ft | 417 kts | 337° |
| 2026-04-20 19:51 | 54.75171 | -2.80633 | 21822 ft | 407 kts | 337° |
| 2026-04-20 19:51 | 54.77770 | -2.82496 | 20855 ft | 400 kts | 337° |
| 2026-04-20 19:51 | 54.80323 | -2.84335 | 19887 ft | 394 kts | 337° |
| 2026-04-20 19:52 | 54.82835 | -2.86145 | 18925 ft | 389 kts | 337° |
| 2026-04-20 19:52 | 54.85317 | -2.87933 | 17974 ft | 383 kts | 337° |
| 2026-04-20 19:52 | 54.87762 | -2.89694 | 17052 ft | 378 kts | 337° |
| 2026-04-20 19:52 | 54.90173 | -2.91430 | 16142 ft | 373 kts | 337° |
| 2026-04-20 19:53 | 54.92553 | -2.93145 | 15244 ft | 368 kts | 337° |
| 2026-04-20 19:53 | 54.94867 | -2.94814 | 14360 ft | 363 kts | 337° |
| 2026-04-20 19:53 | 54.97184 | -2.96488 | 13467 ft | 358 kts | 337° |
| 2026-04-20 19:53 | 54.99469 | -2.98145 | 12565 ft | 353 kts | 337° |
| 2026-04-20 19:54 | 55.01722 | -2.99785 | 11649 ft | 348 kts | 337° |
| 2026-04-20 19:54 | 55.03943 | -3.01403 | 10735 ft | 344 kts | 337° |
| 2026-04-20 19:54 | 55.06134 | -3.02998 | 9839 ft | 339 kts | 337° |
| 2026-04-20 19:54 | 55.08236 | -3.04529 | 9646 ft | 314 kts | 337° |
| 2026-04-20 19:55 | 55.10177 | -3.05944 | 9467 ft | 292 kts | 337° |
| 2026-04-20 19:55 | 55.12021 | -3.07295 | 8981 ft | 285 kts | 337° |
| 2026-04-20 19:55 | 55.13850 | -3.08635 | 8638 ft | 283 kts | 337° |
| 2026-04-20 19:55 | 55.15660 | -3.09960 | 8274 ft | 281 kts | 337° |
| 2026-04-20 19:56 | 55.16853 | -3.10833 | 8050 ft | 280 kts | 337° |
| 2026-04-20 19:56 | 55.19228 | -3.12574 | 8009 ft | 280 kts | 337° |
| 2026-04-20 19:56 | 55.21028 | -3.13896 | 8008 ft | 281 kts | 337° |
| 2026-04-20 19:56 | 55.22829 | -3.15221 | 8009 ft | 281 kts | 337° |
| 2026-04-20 19:57 | 55.24632 | -3.16549 | 8009 ft | 281 kts | 336° |
| 2026-04-20 19:57 | 55.26432 | -3.17876 | 8009 ft | 281 kts | 337° |
| 2026-04-20 19:57 | 55.28233 | -3.19205 | 8009 ft | 281 kts | 337° |
| 2026-04-20 19:57 | 55.30034 | -3.20535 | 8009 ft | 281 kts | 336° |
| 2026-04-20 19:58 | 55.31834 | -3.21866 | 8009 ft | 281 kts | 336° |
| 2026-04-20 19:58 | 55.33638 | -3.23200 | 8009 ft | 281 kts | 336° |
| 2026-04-20 19:58 | 55.35416 | -3.24516 | 8009 ft | 281 kts | 336° |
| 2026-04-20 19:58 | 55.37218 | -3.25851 | 8009 ft | 282 kts | 336° |
| 2026-04-20 19:59 | 55.39027 | -3.27192 | 8009 ft | 282 kts | 336° |
| 2026-04-20 19:59 | 55.40830 | -3.28530 | 7947 ft | 280 kts | 336° |
| 2026-04-20 19:59 | 55.42619 | -3.29858 | 7572 ft | 278 kts | 336° |
| 2026-04-20 19:59 | 55.44401 | -3.31182 | 7175 ft | 277 kts | 336° |
| 2026-04-20 20:00 | 55.46174 | -3.32513 | 6770 ft | 276 kts | 334° |
| 2026-04-20 20:00 | 55.47682 | -3.34522 | 6400 ft | 272 kts | 307° |
| 2026-04-20 20:00 | 55.48475 | -3.37498 | 6001 ft | 270 kts | 279° |
| 2026-04-20 20:00 | 55.48374 | -3.40708 | 5653 ft | 267 kts | 250° |
| 2026-04-20 20:01 | 55.47381 | -3.43428 | 5605 ft | 268 kts | 221° |
| 2026-04-20 20:01 | 55.45752 | -3.44990 | 5609 ft | 270 kts | 193° |
| 2026-04-20 20:01 | 55.43890 | -3.45009 | 5608 ft | 271 kts | 165° |
| 2026-04-20 20:01 | 55.42231 | -3.43472 | 5608 ft | 273 kts | 137° |
| 2026-04-20 20:02 | 55.41174 | -3.40736 | 5609 ft | 273 kts | 109° |
| 2026-04-20 20:02 | 55.40969 | -3.37439 | 5608 ft | 274 kts | 81° |
| 2026-04-20 20:02 | 55.41666 | -3.34353 | 5609 ft | 273 kts | 52° |
| 2026-04-20 20:02 | 55.43097 | -3.32211 | 5609 ft | 273 kts | 24° |
| 2026-04-20 20:03 | 55.44930 | -3.31502 | 5611 ft | 272 kts | 356° |
| 2026-04-20 20:03 | 55.46729 | -3.32287 | 5610 ft | 272 kts | 337° |
| 2026-04-20 20:03 | 55.48461 | -3.33617 | 5610 ft | 272 kts | 335° |
| 2026-04-20 20:03 | 55.50181 | -3.35007 | 5610 ft | 272 kts | 335° |
| 2026-04-20 20:04 | 55.51903 | -3.36410 | 5610 ft | 272 kts | 335° |
| 2026-04-20 20:04 | 55.53617 | -3.37811 | 5610 ft | 272 kts | 334° |
| 2026-04-20 20:04 | 55.55334 | -3.39217 | 5613 ft | 271 kts | 334° |
| 2026-04-20 20:04 | 55.57047 | -3.40621 | 5611 ft | 271 kts | 334° |
| 2026-04-20 20:05 | 55.58757 | -3.42026 | 5608 ft | 271 kts | 334° |
| 2026-04-20 20:05 | 55.60456 | -3.43422 | 5322 ft | 269 kts | 334° |
| 2026-04-20 20:05 | 55.62149 | -3.44814 | 4915 ft | 267 kts | 334° |
| 2026-04-20 20:05 | 55.63806 | -3.46178 | 4515 ft | 266 kts | 334° |
| 2026-04-20 20:06 | 55.65502 | -3.47576 | 4106 ft | 264 kts | 334° |
| 2026-04-20 20:06 | 55.67140 | -3.48926 | 3718 ft | 263 kts | 334° |
| 2026-04-20 20:06 | 55.68774 | -3.50274 | 3603 ft | 252 kts | 334° |
| 2026-04-20 20:06 | 55.70316 | -3.51545 | 3603 ft | 236 kts | 334° |
| 2026-04-20 20:07 | 55.71759 | -3.52733 | 3604 ft | 222 kts | 334° |
| 2026-04-20 20:07 | 55.73117 | -3.53851 | 3605 ft | 209 kts | 334° |
| 2026-04-20 20:07 | 55.74417 | -3.54921 | 3607 ft | 204 kts | 334° |
| 2026-04-20 20:07 | 55.75698 | -3.55976 | 3609 ft | 202 kts | 334° |
| 2026-04-20 20:08 | 55.76968 | -3.57021 | 3578 ft | 200 kts | 334° |
| 2026-04-20 20:08 | 55.78222 | -3.58054 | 3414 ft | 195 kts | 334° |
| 2026-04-20 20:08 | 55.79399 | -3.59023 | 3297 ft | 184 kts | 334° |
| 2026-04-20 20:08 | 55.80529 | -3.59953 | 3166 ft | 175 kts | 334° |
| 2026-04-20 20:09 | 55.81607 | -3.60840 | 3034 ft | 167 kts | 334° |
| 2026-04-20 20:09 | 55.82632 | -3.61683 | 2913 ft | 158 kts | 334° |
| 2026-04-20 20:09 | 55.83607 | -3.62483 | 2767 ft | 152 kts | 335° |
| 2026-04-20 20:09 | 55.84628 | -3.62789 | 2557 ft | 152 kts | 13° |
| 2026-04-20 20:10 | 55.85525 | -3.61870 | 2364 ft | 150 kts | 43° |
| 2026-04-20 20:10 | 55.86228 | -3.60509 | 2166 ft | 146 kts | 49° |
| 2026-04-20 20:10 | 55.86884 | -3.59149 | 1919 ft | 145 kts | 47° |
| 2026-04-20 20:10 | 55.87636 | -3.57967 | 1681 ft | 143 kts | 34° |
| 2026-04-20 20:11 | 55.88389 | -3.56830 | 1586 ft | 144 kts | 61° |
| 2026-04-20 20:11 | 55.88798 | -3.55244 | 1624 ft | 145 kts | 57° |
| 2026-04-20 20:11 | 55.89351 | -3.53746 | 1614 ft | 144 kts | 57° |
| 2026-04-20 20:11 | 55.89884 | -3.52233 | 1613 ft | 144 kts | 58° |
| 2026-04-20 20:12 | 55.90429 | -3.50717 | 1456 ft | 145 kts | 58° |
| 2026-04-20 20:12 | 55.90946 | -3.49187 | 1332 ft | 146 kts | 58° |
| 2026-04-20 20:12 | 55.91467 | -3.47647 | 1022 ft | 144 kts | 58° |
| 2026-04-20 20:13 | 55.92502 | -3.44636 | 668 ft | 142 kts | 58° |
| 2026-04-20 20:13 | 55.93007 | -3.43127 | 510 ft | 142 kts | 59° |
| 2026-04-20 20:13 | 55.93502 | -3.41639 | 375 ft | 141 kts | 58° |
| 2026-04-20 20:13 | 55.94017 | -3.40161 | 252 ft | 139 kts | 58° |
| 2026-04-20 20:14 | 55.94517 | -3.38700 | 135 ft | 137 kts | 60° |
| 2026-04-20 20:14 | 55.94946 | -3.37414 | 110 ft | 99 kts | 59° |
| 2026-04-20 20:14 | 55.95207 | -3.36640 | 112 ft | 43 kts | 59° |
| 2026-04-20 20:14 | 55.95259 | -3.36462 | 109 ft | 8 kts | 84° |
| 2026-04-20 20:15 | 55.95241 | -3.36401 | 112 ft | 4 kts | 142° |
| 2026-04-20 20:15 | 55.95216 | -3.36374 | 114 ft | 15 kts | 149° |
| 2026-04-20 20:15 | 55.95179 | -3.36337 | 115 ft | 0 kts | 150° |
| 2026-04-20 20:17 | 55.95160 | -3.36318 | 114 ft | 12 kts | 152° |
| 2026-04-20 20:17 | 55.95095 | -3.36392 | 114 ft | 12 kts | 236° |
| 2026-04-20 20:17 | 55.95056 | -3.36508 | 115 ft | 10 kts | 239° |
| 2026-04-20 20:17 | 55.95022 | -3.36608 | 114 ft | 9 kts | 239° |
| 2026-04-20 20:18 | 55.94988 | -3.36712 | 114 ft | 9 kts | 239° |
| 2026-04-20 20:18 | 55.94954 | -3.36802 | 114 ft | 8 kts | 228° |
| 2026-04-20 20:18 | 55.94902 | -3.36806 | 116 ft | 8 kts | 158° |
| 2026-04-20 20:18 | 55.94849 | -3.36778 | 116 ft | 8 kts | 173° |
| 2026-04-20 20:19 | 55.94787 | -3.36767 | 116 ft | 9 kts | 163° |
| 2026-04-20 20:19 | 55.94725 | -3.36739 | 115 ft | 9 kts | 179° |
| 2026-04-20 20:19 | 55.94702 | -3.36676 | 116 ft | 5 kts | 90° |
| 2026-04-20 20:19 | 55.94702 | -3.36625 | 116 ft | 2 kts | 89° |
| 2026-04-20 20:20 | 55.94702 | -3.36613 | 116 ft | 1 kts | 89° |
| 2026-04-20 20:20 | 55.94702 | -3.36607 | 116 ft | 0 kts | 89° |